sensor_id;sensor_type;location;lat;lon;timestamp;temperature;humidity
8114;DHT22;4099;52.684;9.918;2022-11-20T00:02:44;-1.70;99.90
8114;DHT22;4099;52.684;9.918;2022-11-20T00:07:49;-1.60;99.90
8114;DHT22;4099;52.684;9.918;2022-11-20T00:12:55;-1.70;99.90
8114;DHT22;4099;52.684;9.918;2022-11-20T00:18:02;-1.70;99.90
8114;DHT22;4099;52.684;9.918;2022-11-20T00:23:07;-1.70;99.90
8114;DHT22;4099;52.684;9.918;2022-11-20T00:28:13;-1.60;99.90
8114;DHT22;4099;52.684;9.918;2022-11-20T00:33:16;-1.60;99.90
8114;DHT22;4099;52.684;9.918;2022-11-20T00:38:22;-1.70;99.90
8114;DHT22;4099;52.684;9.918;2022-11-20T00:43:25;-1.70;99.90
8114;DHT22;4099;52.684;9.918;2022-11-20T00:48:29;-1.70;99.90
8114;DHT22;4099;52.684;9.918;2022-11-20T00:53:36;-1.70;99.90
8114;DHT22;4099;52.684;9.918;2022-11-20T00:58:41;-1.60;99.90
8114;DHT22;4099;52.684;9.918;2022-11-20T01:03:46;-1.50;99.90
8114;DHT22;4099;52.684;9.918;2022-11-20T01:08:53;-1.50;99.90
8114;DHT22;4099;52.684;9.918;2022-11-20T01:13:58;-1.40;99.90
8114;DHT22;4099;52.684;9.918;2022-11-20T01:19:03;-1.40;99.90
8114;DHT22;4099;52.684;9.918;2022-11-20T01:24:11;-1.40;99.90
8114;DHT22;4099;52.684;9.918;2022-11-20T01:29:16;-1.40;99.90
8114;DHT22;4099;52.684;9.918;2022-11-20T01:34:20;-1.40;99.90
8114;DHT22;4099;52.684;9.918;2022-11-20T01:39:26;-1.40;99.90
8114;DHT22;4099;52.684;9.918;2022-11-20T01:44:53;-1.40;99.90
8114;DHT22;4099;52.684;9.918;2022-11-20T01:50:03;-1.40;99.90
8114;DHT22;4099;52.684;9.918;2022-11-20T01:55:10;-1.30;99.90
8114;DHT22;4099;52.684;9.918;2022-11-20T02:00:20;-1.40;99.90
8114;DHT22;4099;52.684;9.918;2022-11-20T02:05:25;-1.40;99.90
8114;DHT22;4099;52.684;9.918;2022-11-20T02:10:31;-1.40;99.90
8114;DHT22;4099;52.684;9.918;2022-11-20T02:15:34;-1.30;99.90
8114;DHT22;4099;52.684;9.918;2022-11-20T02:20:37;-1.20;99.90
8114;DHT22;4099;52.684;9.918;2022-11-20T02:25:43;-1.30;99.90
8114;DHT22;4099;52.684;9.918;2022-11-20T02:30:48;-1.30;99.90
8114;DHT22;4099;52.684;9.918;2022-11-20T02:35:51;-1.30;99.90
8114;DHT22;4099;52.684;9.918;2022-11-20T02:41:04;-1.30;99.90
8114;DHT22;4099;52.684;9.918;2022-11-20T02:46:09;-1.20;99.90
8114;DHT22;4099;52.684;9.918;2022-11-20T02:51:11;-1.10;99.90
8114;DHT22;4099;52.684;9.918;2022-11-20T02:56:17;-1.10;99.90
8114;DHT22;4099;52.684;9.918;2022-11-20T03:01:20;-1.10;99.90
8114;DHT22;4099;52.684;9.918;2022-11-20T03:06:25;-1.00;99.90
8114;DHT22;4099;52.684;9.918;2022-11-20T03:11:30;-1.10;99.90
8114;DHT22;4099;52.684;9.918;2022-11-20T03:16:33;-1.20;99.90
8114;DHT22;4099;52.684;9.918;2022-11-20T03:21:37;-1.30;99.90
8114;DHT22;4099;52.684;9.918;2022-11-20T03:26:42;-1.10;99.90
8114;DHT22;4099;52.684;9.918;2022-11-20T03:31:45;-1.00;99.90
8114;DHT22;4099;52.684;9.918;2022-11-20T03:36:49;-0.80;99.90
8114;DHT22;4099;52.684;9.918;2022-11-20T03:41:54;-0.80;99.90
8114;DHT22;4099;52.684;9.918;2022-11-20T03:46:57;-0.70;99.90
8114;DHT22;4099;52.684;9.918;2022-11-20T03:51:59;-0.60;99.90
8114;DHT22;4099;52.684;9.918;2022-11-20T03:57:07;-0.90;99.90
8114;DHT22;4099;52.684;9.918;2022-11-20T04:02:19;-0.90;99.90
8114;DHT22;4099;52.684;9.918;2022-11-20T04:07:24;-0.80;99.90
8114;DHT22;4099;52.684;9.918;2022-11-20T04:12:34;-0.80;99.90
8114;DHT22;4099;52.684;9.918;2022-11-20T04:17:37;-0.60;99.90
8114;DHT22;4099;52.684;9.918;2022-11-20T04:22:42;-0.80;99.90
8114;DHT22;4099;52.684;9.918;2022-11-20T04:27:50;-0.90;99.90
8114;DHT22;4099;52.684;9.918;2022-11-20T04:32:53;-0.90;99.90
8114;DHT22;4099;52.684;9.918;2022-11-20T04:37:56;-0.90;99.90
8114;DHT22;4099;52.684;9.918;2022-11-20T04:43:00;-0.80;99.90
8114;DHT22;4099;52.684;9.918;2022-11-20T04:48:06;-0.60;99.90
8114;DHT22;4099;52.684;9.918;2022-11-20T04:53:12;-0.70;99.90
8114;DHT22;4099;52.684;9.918;2022-11-20T04:58:17;-0.60;99.90
8114;DHT22;4099;52.684;9.918;2022-11-20T05:03:22;-0.70;99.90
8114;DHT22;4099;52.684;9.918;2022-11-20T05:08:25;-0.70;99.90
8114;DHT22;4099;52.684;9.918;2022-11-20T05:13:31;-0.70;99.90
8114;DHT22;4099;52.684;9.918;2022-11-20T05:18:53;-0.90;99.90
8114;DHT22;4099;52.684;9.918;2022-11-20T05:23:58;-1.00;99.90
8114;DHT22;4099;52.684;9.918;2022-11-20T05:29:06;-1.00;99.90
8114;DHT22;4099;52.684;9.918;2022-11-20T05:34:08;-0.80;99.90
8114;DHT22;4099;52.684;9.918;2022-11-20T05:39:11;-1.00;99.90
8114;DHT22;4099;52.684;9.918;2022-11-20T05:44:20;-0.90;99.90
8114;DHT22;4099;52.684;9.918;2022-11-20T05:49:28;-0.90;99.90
8114;DHT22;4099;52.684;9.918;2022-11-20T05:54:31;-1.00;99.90
8114;DHT22;4099;52.684;9.918;2022-11-20T05:59:38;-0.90;99.90
8114;DHT22;4099;52.684;9.918;2022-11-20T06:04:41;-0.90;99.90
8114;DHT22;4099;52.684;9.918;2022-11-20T06:09:46;-0.90;99.90
8114;DHT22;4099;52.684;9.918;2022-11-20T06:14:50;-0.90;99.90
8114;DHT22;4099;52.684;9.918;2022-11-20T06:19:53;-1.10;99.90
8114;DHT22;4099;52.684;9.918;2022-11-20T06:25:02;-1.00;99.90
8114;DHT22;4099;52.684;9.918;2022-11-20T06:30:08;-1.00;99.90
8114;DHT22;4099;52.684;9.918;2022-11-20T06:35:14;-1.10;99.90
8114;DHT22;4099;52.684;9.918;2022-11-20T06:40:23;-1.10;99.90
8114;DHT22;4099;52.684;9.918;2022-11-20T06:45:35;-1.00;99.90
8114;DHT22;4099;52.684;9.918;2022-11-20T06:50:41;-0.90;99.90
8114;DHT22;4099;52.684;9.918;2022-11-20T06:55:46;-1.00;99.90
8114;DHT22;4099;52.684;9.918;2022-11-20T07:00:52;-1.20;99.90
8114;DHT22;4099;52.684;9.918;2022-11-20T07:05:58;-1.10;99.90
8114;DHT22;4099;52.684;9.918;2022-11-20T07:11:07;-1.00;99.90
8114;DHT22;4099;52.684;9.918;2022-11-20T07:16:41;-1.00;99.90
8114;DHT22;4099;52.684;9.918;2022-11-20T07:21:49;-0.90;99.90
8114;DHT22;4099;52.684;9.918;2022-11-20T07:26:55;-0.90;99.90
8114;DHT22;4099;52.684;9.918;2022-11-20T07:32:12;-0.70;99.90
8114;DHT22;4099;52.684;9.918;2022-11-20T07:37:15;-0.70;99.90
8114;DHT22;4099;52.684;9.918;2022-11-20T07:42:22;-0.60;99.90
8114;DHT22;4099;52.684;9.918;2022-11-20T07:47:42;-0.70;99.90
8114;DHT22;4099;52.684;9.918;2022-11-20T07:52:49;-0.70;99.90
8114;DHT22;4099;52.684;9.918;2022-11-20T07:57:59;-0.70;99.90
8114;DHT22;4099;52.684;9.918;2022-11-20T08:03:05;-0.60;99.90
8114;DHT22;4099;52.684;9.918;2022-11-20T08:08:11;-0.60;99.90
8114;DHT22;4099;52.684;9.918;2022-11-20T08:13:17;-0.50;99.90
8114;DHT22;4099;52.684;9.918;2022-11-20T08:18:48;-0.50;99.90
8114;DHT22;4099;52.684;9.918;2022-11-20T08:23:55;-0.40;99.90
8114;DHT22;4099;52.684;9.918;2022-11-20T08:28:59;-0.50;99.90
8114;DHT22;4099;52.684;9.918;2022-11-20T08:34:10;-0.50;99.90
8114;DHT22;4099;52.684;9.918;2022-11-20T08:39:27;-0.20;99.90
8114;DHT22;4099;52.684;9.918;2022-11-20T08:44:46;-0.20;99.90
8114;DHT22;4099;52.684;9.918;2022-11-20T08:49:55;-0.10;99.90
8114;DHT22;4099;52.684;9.918;2022-11-20T08:55:03;0.10;99.90
8114;DHT22;4099;52.684;9.918;2022-11-20T09:00:18;0.10;99.90
8114;DHT22;4099;52.684;9.918;2022-11-20T09:05:30;0.10;99.90
8114;DHT22;4099;52.684;9.918;2022-11-20T09:10:36;0.10;98.70
8114;DHT22;4099;52.684;9.918;2022-11-20T09:21:11;0.20;99.90
8114;DHT22;4099;52.684;9.918;2022-11-20T09:26:24;0.20;93.90
8114;DHT22;4099;52.684;9.918;2022-11-20T09:31:27;0.10;59.30
8114;DHT22;4099;52.684;9.918;2022-11-20T09:36:33;0.20;71.20
8114;DHT22;4099;52.684;9.918;2022-11-20T09:47:33;0.40;78.80
8114;DHT22;4099;52.684;9.918;2022-11-20T09:52:49;0.40;78.50
8114;DHT22;4099;52.684;9.918;2022-11-20T09:58:03;0.50;91.30
8114;DHT22;4099;52.684;9.918;2022-11-20T10:03:14;0.60;96.20
8114;DHT22;4099;52.684;9.918;2022-11-20T10:08:35;0.70;86.60
8114;DHT22;4099;52.684;9.918;2022-11-20T10:13:56;0.60;1.00
8114;DHT22;4099;52.684;9.918;2022-11-20T10:19:21;0.60;50.40
8114;DHT22;4099;52.684;9.918;2022-11-20T10:24:51;0.40;66.50
8114;DHT22;4099;52.684;9.918;2022-11-20T10:30:11;0.40;99.90
8114;DHT22;4099;52.684;9.918;2022-11-20T10:35:21;0.60;47.90
8114;DHT22;4099;52.684;9.918;2022-11-20T10:40:42;0.60;50.40
8114;DHT22;4099;52.684;9.918;2022-11-20T10:45:58;0.70;16.20
8114;DHT22;4099;52.684;9.918;2022-11-20T10:51:15;1.00;1.00
8114;DHT22;4099;52.684;9.918;2022-11-20T10:56:34;1.10;1.00
8114;DHT22;4099;52.684;9.918;2022-11-20T11:01:41;1.00;1.00
8114;DHT22;4099;52.684;9.918;2022-11-20T11:06:48;0.80;1.00
8114;DHT22;4099;52.684;9.918;2022-11-20T11:11:58;0.70;1.00
8114;DHT22;4099;52.684;9.918;2022-11-20T11:17:03;0.70;1.00
8114;DHT22;4099;52.684;9.918;2022-11-20T11:22:18;0.60;1.00
8114;DHT22;4099;52.684;9.918;2022-11-20T11:27:47;0.70;1.00
8114;DHT22;4099;52.684;9.918;2022-11-20T11:33:09;1.10;1.00
8114;DHT22;4099;52.684;9.918;2022-11-20T11:38:19;1.10;1.00
8114;DHT22;4099;52.684;9.918;2022-11-20T11:43:51;1.00;1.00
8114;DHT22;4099;52.684;9.918;2022-11-20T11:49:25;1.10;1.00
8114;DHT22;4099;52.684;9.918;2022-11-20T11:54:40;1.10;1.00
8114;DHT22;4099;52.684;9.918;2022-11-20T12:00:16;1.10;1.00
8114;DHT22;4099;52.684;9.918;2022-11-20T12:05:28;1.10;1.00
8114;DHT22;4099;52.684;9.918;2022-11-20T12:10:41;1.00;1.00
8114;DHT22;4099;52.684;9.918;2022-11-20T12:15:56;0.80;1.00
8114;DHT22;4099;52.684;9.918;2022-11-20T12:21:19;0.80;1.00
8114;DHT22;4099;52.684;9.918;2022-11-20T12:26:39;0.90;1.00
8114;DHT22;4099;52.684;9.918;2022-11-20T12:32:17;1.00;1.00
8114;DHT22;4099;52.684;9.918;2022-11-20T12:37:38;1.00;1.00
8114;DHT22;4099;52.684;9.918;2022-11-20T12:43:01;1.10;1.00
8114;DHT22;4099;52.684;9.918;2022-11-20T12:48:46;1.00;1.00
8114;DHT22;4099;52.684;9.918;2022-11-20T12:54:05;0.90;
8114;DHT22;4099;52.684;9.918;2022-11-20T12:59:33;0.80;1.00
8114;DHT22;4099;52.684;9.918;2022-11-20T13:05:13;0.80;1.00
8114;DHT22;4099;52.684;9.918;2022-11-20T13:10:39;0.70;1.00
8114;DHT22;4099;52.684;9.918;2022-11-20T13:15:51;0.70;1.00
8114;DHT22;4099;52.684;9.918;2022-11-20T13:21:12;0.70;1.00
8114;DHT22;4099;52.684;9.918;2022-11-20T13:26:25;0.60;9.90
8114;DHT22;4099;52.684;9.918;2022-11-20T13:31:36;0.50;99.90
8114;DHT22;4099;52.684;9.918;2022-11-20T13:36:53;0.40;99.90
8114;DHT22;4099;52.684;9.918;2022-11-20T13:41:58;0.30;99.90
8114;DHT22;4099;52.684;9.918;2022-11-20T13:47:23;0.20;99.90
8114;DHT22;4099;52.684;9.918;2022-11-20T13:52:43;0.10;99.90
8114;DHT22;4099;52.684;9.918;2022-11-20T13:58:05;0.10;99.90
8114;DHT22;4099;52.684;9.918;2022-11-20T14:03:21;0.20;99.90
8114;DHT22;4099;52.684;9.918;2022-11-20T14:08:35;0.20;99.90
8114;DHT22;4099;52.684;9.918;2022-11-20T14:14:01;0.20;99.90
8114;DHT22;4099;52.684;9.918;2022-11-20T14:19:28;0.20;99.90
8114;DHT22;4099;52.684;9.918;2022-11-20T14:24:40;0.10;99.90
8114;DHT22;4099;52.684;9.918;2022-11-20T14:30:05;0.20;99.90
8114;DHT22;4099;52.684;9.918;2022-11-20T14:35:24;0.00;99.90
8114;DHT22;4099;52.684;9.918;2022-11-20T14:46:02;-0.10;99.90
8114;DHT22;4099;52.684;9.918;2022-11-20T14:51:34;-0.10;99.90
8114;DHT22;4099;52.684;9.918;2022-11-20T14:56:54;-0.10;99.90
8114;DHT22;4099;52.684;9.918;2022-11-20T15:01:59;-0.10;99.90
8114;DHT22;4099;52.684;9.918;2022-11-20T15:07:22;0.10;99.90
8114;DHT22;4099;52.684;9.918;2022-11-20T15:12:27;0.00;99.90
8114;DHT22;4099;52.684;9.918;2022-11-20T15:17:32;0.00;99.90
8114;DHT22;4099;52.684;9.918;2022-11-20T15:22:41;0.00;99.90
8114;DHT22;4099;52.684;9.918;2022-11-20T15:27:53;-0.10;99.90
8114;DHT22;4099;52.684;9.918;2022-11-20T15:32:59;-0.10;99.90
8114;DHT22;4099;52.684;9.918;2022-11-20T15:38:07;-0.20;99.90
8114;DHT22;4099;52.684;9.918;2022-11-20T15:43:22;-0.10;99.90
8114;DHT22;4099;52.684;9.918;2022-11-20T15:48:26;0.00;99.90
8114;DHT22;4099;52.684;9.918;2022-11-20T15:53:32;0.00;99.90
8114;DHT22;4099;52.684;9.918;2022-11-20T15:58:37;-0.20;99.90
8114;DHT22;4099;52.684;9.918;2022-11-20T16:03:43;-0.20;99.90
8114;DHT22;4099;52.684;9.918;2022-11-20T16:08:46;-0.10;99.90
8114;DHT22;4099;52.684;9.918;2022-11-20T16:13:52;-0.10;99.90
8114;DHT22;4099;52.684;9.918;2022-11-20T16:19:13;0.00;99.90
8114;DHT22;4099;52.684;9.918;2022-11-20T16:24:19;-0.10;99.90
8114;DHT22;4099;52.684;9.918;2022-11-20T16:29:24;0.00;99.90
8114;DHT22;4099;52.684;9.918;2022-11-20T16:34:34;0.00;99.90
8114;DHT22;4099;52.684;9.918;2022-11-20T16:39:38;-0.20;99.90
8114;DHT22;4099;52.684;9.918;2022-11-20T16:44:45;-0.20;99.90
8114;DHT22;4099;52.684;9.918;2022-11-20T16:49:50;-0.30;99.90
8114;DHT22;4099;52.684;9.918;2022-11-20T16:54:53;-0.10;99.90
8114;DHT22;4099;52.684;9.918;2022-11-20T16:59:57;-0.20;99.90
8114;DHT22;4099;52.684;9.918;2022-11-20T17:05:02;-0.10;99.90
8114;DHT22;4099;52.684;9.918;2022-11-20T17:10:20;-0.40;99.90
8114;DHT22;4099;52.684;9.918;2022-11-20T17:15:28;-0.60;99.90
8114;DHT22;4099;52.684;9.918;2022-11-20T17:20:50;-0.70;99.90
8114;DHT22;4099;52.684;9.918;2022-11-20T17:26:00;-1.10;99.90
8114;DHT22;4099;52.684;9.918;2022-11-20T17:31:08;-0.90;99.90
8114;DHT22;4099;52.684;9.918;2022-11-20T17:36:17;-0.80;99.90
8114;DHT22;4099;52.684;9.918;2022-11-20T17:41:21;-0.60;99.90
8114;DHT22;4099;52.684;9.918;2022-11-20T17:46:31;-1.10;99.90
8114;DHT22;4099;52.684;9.918;2022-11-20T17:51:36;-0.90;99.90
8114;DHT22;4099;52.684;9.918;2022-11-20T17:56:39;-0.90;99.90
8114;DHT22;4099;52.684;9.918;2022-11-20T18:02:06;-0.90;99.90
8114;DHT22;4099;52.684;9.918;2022-11-20T18:07:13;-1.00;99.90
8114;DHT22;4099;52.684;9.918;2022-11-20T18:12:16;-1.10;99.90
8114;DHT22;4099;52.684;9.918;2022-11-20T18:17:22;-1.00;99.90
8114;DHT22;4099;52.684;9.918;2022-11-20T18:22:25;-1.10;99.90
8114;DHT22;4099;52.684;9.918;2022-11-20T18:27:28;-1.40;99.90
8114;DHT22;4099;52.684;9.918;2022-11-20T18:32:35;-1.80;99.90
8114;DHT22;4099;52.684;9.918;2022-11-20T18:37:38;-1.70;99.90
8114;DHT22;4099;52.684;9.918;2022-11-20T18:42:40;-1.50;99.90
8114;DHT22;4099;52.684;9.918;2022-11-20T18:48:11;-1.70;99.90
8114;DHT22;4099;52.684;9.918;2022-11-20T18:53:14;-1.40;99.90
8114;DHT22;4099;52.684;9.918;2022-11-20T18:58:19;-1.50;99.90
8114;DHT22;4099;52.684;9.918;2022-11-20T19:03:26;-1.20;99.90
8114;DHT22;4099;52.684;9.918;2022-11-20T19:08:35;-1.10;99.90
8114;DHT22;4099;52.684;9.918;2022-11-20T19:13:44;-1.50;99.90
8114;DHT22;4099;52.684;9.918;2022-11-20T19:18:52;-1.30;99.90
8114;DHT22;4099;52.684;9.918;2022-11-20T19:24:00;-1.40;99.90
8114;DHT22;4099;52.684;9.918;2022-11-20T19:29:05;-1.50;99.90
8114;DHT22;4099;52.684;9.918;2022-11-20T19:34:09;-1.50;99.90
8114;DHT22;4099;52.684;9.918;2022-11-20T19:39:13;-1.40;99.90
8114;DHT22;4099;52.684;9.918;2022-11-20T19:44:16;-1.60;99.90
8114;DHT22;4099;52.684;9.918;2022-11-20T19:49:21;-1.70;99.90
8114;DHT22;4099;52.684;9.918;2022-11-20T19:54:29;-1.70;99.90
8114;DHT22;4099;52.684;9.918;2022-11-20T19:59:36;-1.60;99.90
8114;DHT22;4099;52.684;9.918;2022-11-20T20:04:44;-1.50;99.90
8114;DHT22;4099;52.684;9.918;2022-11-20T20:09:47;-1.50;99.90
8114;DHT22;4099;52.684;9.918;2022-11-20T20:14:53;-1.30;99.90
8114;DHT22;4099;52.684;9.918;2022-11-20T20:20:00;-1.30;99.90
8114;DHT22;4099;52.684;9.918;2022-11-20T20:25:03;-1.30;99.90
8114;DHT22;4099;52.684;9.918;2022-11-20T20:30:08;-1.30;99.90
8114;DHT22;4099;52.684;9.918;2022-11-20T20:35:35;-1.30;99.90
8114;DHT22;4099;52.684;9.918;2022-11-20T20:40:45;-1.30;99.90
8114;DHT22;4099;52.684;9.918;2022-11-20T20:45:51;-1.20;99.90
8114;DHT22;4099;52.684;9.918;2022-11-20T20:50:56;-1.20;99.90
8114;DHT22;4099;52.684;9.918;2022-11-20T20:56:05;-1.10;99.90
8114;DHT22;4099;52.684;9.918;2022-11-20T21:01:14;-1.00;99.90
8114;DHT22;4099;52.684;9.918;2022-11-20T21:06:19;-1.00;99.90
8114;DHT22;4099;52.684;9.918;2022-11-20T21:11:23;-1.00;99.90
8114;DHT22;4099;52.684;9.918;2022-11-20T21:16:36;-0.90;99.90
8114;DHT22;4099;52.684;9.918;2022-11-20T21:21:45;-1.10;99.90
8114;DHT22;4099;52.684;9.918;2022-11-20T21:27:08;-0.90;99.90
8114;DHT22;4099;52.684;9.918;2022-11-20T21:32:15;-0.80;99.90
8114;DHT22;4099;52.684;9.918;2022-11-20T21:37:19;-1.20;99.90
8114;DHT22;4099;52.684;9.918;2022-11-20T21:42:26;-1.40;99.90
8114;DHT22;4099;52.684;9.918;2022-11-20T21:47:30;-1.50;99.90
8114;DHT22;4099;52.684;9.918;2022-11-20T21:52:37;-1.40;99.90
8114;DHT22;4099;52.684;9.918;2022-11-20T21:57:39;-1.50;99.90
8114;DHT22;4099;52.684;9.918;2022-11-20T22:02:46;-1.30;99.90
8114;DHT22;4099;52.684;9.918;2022-11-20T22:07:54;-1.50;99.90
8114;DHT22;4099;52.684;9.918;2022-11-20T22:13:00;-1.40;99.90
8114;DHT22;4099;52.684;9.918;2022-11-20T22:18:18;-1.10;99.90
8114;DHT22;4099;52.684;9.918;2022-11-20T22:23:24;-1.10;99.90
8114;DHT22;4099;52.684;9.918;2022-11-20T22:28:27;-1.20;99.90
8114;DHT22;4099;52.684;9.918;2022-11-20T22:33:31;-1.20;99.90
8114;DHT22;4099;52.684;9.918;2022-11-20T22:38:37;-1.20;99.90
8114;DHT22;4099;52.684;9.918;2022-11-20T22:43:41;-1.40;99.90
8114;DHT22;4099;52.684;9.918;2022-11-20T22:48:48;-1.40;99.90
8114;DHT22;4099;52.684;9.918;2022-11-20T22:53:55;-1.20;99.90
8114;DHT22;4099;52.684;9.918;2022-11-20T22:58:59;-1.20;99.90
8114;DHT22;4099;52.684;9.918;2022-11-20T23:04:04;-1.10;99.90
8114;DHT22;4099;52.684;9.918;2022-11-20T23:09:17;-1.00;99.90
8114;DHT22;4099;52.684;9.918;2022-11-20T23:14:20;-1.10;99.90
8114;DHT22;4099;52.684;9.918;2022-11-20T23:19:28;-1.00;99.90
8114;DHT22;4099;52.684;9.918;2022-11-20T23:24:36;-0.90;99.90
8114;DHT22;4099;52.684;9.918;2022-11-20T23:29:40;-0.80;99.90
8114;DHT22;4099;52.684;9.918;2022-11-20T23:34:42;-0.80;99.90
8114;DHT22;4099;52.684;9.918;2022-11-20T23:39:47;-0.70;99.90
8114;DHT22;4099;52.684;9.918;2022-11-20T23:44:49;-0.90;99.90
8114;DHT22;4099;52.684;9.918;2022-11-20T23:49:54;-0.80;99.90
8114;DHT22;4099;52.684;9.918;2022-11-20T23:54:59;-0.80;99.90
